Terminal Aerodrome Forecast
Issued by NWS Milwaukee/Sullivan, WI

Home | Current Version | Previous Version | Text Only | Print | Product List | Glossary On
Versions: 1 2 3 4 5 6 7 8 9 10 11 12 13 14 15 16 17 18 19 20 21 22 23 24 25 26 27 28 29 30 31 32 33 34 35 36 37 38 39 40 41 42
000
FTUS43 KMKX 240520
TAFMSN
TAF
KMSN 240520Z 2406/2506 20008KT P6SM FEW250
     FM240900 20010KT P6SM FEW150 SCT250 WS020/23040KT
     FM241300 20012KT P6SM FEW110 SCT250 WS020/23045KT
     FM241900 22014G24KT P6SM FEW140 FEW250
     FM242200 23011KT P6SM SCT120
     FM250100 28012KT P6SM BKN120
     FM250400 31014G24KT P6SM FEW100 FEW250=

USA.gov is the U.S. government's official web portal to all federal, state and local government web resources and services.